»·PEaware :: N326MC KAMA-KABQ

N326MC :: KAMA-KABQ

FLIGHT INFORMATION

Flight Status: Arrived
Operator: Privately registered:
United States
More flights under this callsign
Pilot: Anonymous 5456 (5456)
Aircraft: PIPER PA-30 TWIN COMANCHE
(PA30)
More flights by this aircraft type
Origin: KAMA Amarillo Intl
United States
Destination: KABQ Albuquerque Intl Sunport
United States
More flights between these airports :: More routes between these airports
Route: PNH V12 ABQ
File this flight plan on PilotEdge
Remarks:
Altitude:
(Current/Filed)
11,000ft
Speed:
(Current/Filed)
160kts
Departed: 08-Dec-17 05:41 PM
Arrived: 08-Dec-17 07:21 PM
Distance/Time
Traveled:
241nm/1:40
Distance/Time
To Go:
Arrived

Flight Plot

Page will automatically refresh every two minutes.

Flight plan parsing failed; only flown route is shown


Map Options




Map Legend


Flown Route
Filed Route
Departure Airport
Arrival Airport
Navaid (VOR, NDB)
Fix

Horizontal Profiles

Position Reports

Time Latitude Longitude Heading Altitude Ground
Speed
08-Dec-17 17:24 35.217331 -101.708239 227 3609ft 0kts
08-Dec-17 17:25 35.217331 -101.708239 227 3609ft 0kts
08-Dec-17 17:26 35.217331 -101.708239 227 3609ft 0kts
08-Dec-17 17:27 35.217331 -101.708239 227 3609ft 0kts
08-Dec-17 17:28 35.217331 -101.708239 227 3609ft 0kts
08-Dec-17 17:28 35.217331 -101.708239 227 3609ft 0kts
08-Dec-17 17:30 35.217331 -101.708239 227 3609ft 0kts
08-Dec-17 17:31 35.217331 -101.708239 227 3609ft 0kts
08-Dec-17 17:31 35.217331 -101.708239 227 3609ft 0kts
08-Dec-17 17:33 35.217331 -101.708239 227 3609ft 0kts
08-Dec-17 17:34 35.217331 -101.708239 227 3609ft 0kts
08-Dec-17 17:34 35.217331 -101.708239 227 3609ft 0kts
08-Dec-17 17:35 35.217331 -101.708239 227 3609ft 0kts
08-Dec-17 17:36 35.217331 -101.708239 227 3609ft 0kts
08-Dec-17 17:37 35.217331 -101.708239 227 3609ft 0kts
08-Dec-17 17:38 35.217793 -101.708896 320 3609ft 9kts
08-Dec-17 17:39 35.217917 -101.711279 230 3609ft 8kts
08-Dec-17 17:40 35.216195 -101.713521 227 3608ft 10kts
08-Dec-17 17:41 35.214039 -101.716205 225 3608ft 10kts
08-Dec-17 17:42 35.211468 -101.719472 226 3609ft 15kts
08-Dec-17 17:43 35.208261 -101.723478 224 3609ft 16kts
08-Dec-17 17:44 35.204987 -101.727605 226 3609ft 17kts
08-Dec-17 17:45 35.203834 -101.730923 317 3609ft 11kts
08-Dec-17 17:46 35.206983 -101.730382 45 3609ft 61kts
08-Dec-17 17:47 35.225237 -101.706898 49 4723ft 101kts
08-Dec-17 17:48 35.246135 -101.683385 10 5922ft 107kts
08-Dec-17 17:49 35.246975 -101.713246 252 6967ft 124kts
08-Dec-17 17:50 35.238163 -101.756412 268 7827ft 124kts
08-Dec-17 17:51 35.237849 -101.797658 276 8815ft 120kts
08-Dec-17 17:52 35.242101 -101.837921 284 9746ft 118kts
08-Dec-17 17:53 35.249465 -101.872451 290 10535ft 117kts
08-Dec-17 17:54 35.256237 -101.910675 266 11366ft 117kts
08-Dec-17 17:55 35.252146 -101.955091 271 10995ft 149kts
08-Dec-17 17:56 35.250931 -102.008257 269 10993ft 159kts
08-Dec-17 17:57 35.248862 -102.062728 269 10992ft 161kts
08-Dec-17 17:58 35.246804 -102.117708 269 10992ft 161kts
08-Dec-17 17:59 35.245381 -102.155496 269 10992ft 161kts
08-Dec-17 18:00 35.243300 -102.210380 269 10992ft 161kts
08-Dec-17 18:01 35.241195 -102.265228 269 10992ft 161kts
08-Dec-17 18:02 35.239064 -102.320202 269 10992ft 163kts
08-Dec-17 18:03 35.237178 -102.368388 269 10992ft 165kts
08-Dec-17 18:04 35.235042 -102.424213 267 11039ft 162kts
08-Dec-17 18:05 35.233125 -102.470483 267 11046ft 164kts
08-Dec-17 18:06 35.230844 -102.526297 267 11045ft 164kts
08-Dec-17 18:07 35.228559 -102.581955 267 11045ft 164kts
08-Dec-17 18:08 35.226241 -102.637852 267 11045ft 164kts
08-Dec-17 18:09 35.224301 -102.684130 266 11045ft 164kts
08-Dec-17 18:10 35.222062 -102.737072 266 11045ft 164kts
08-Dec-17 18:11 35.219674 -102.792939 266 11045ft 164kts
08-Dec-17 18:12 35.217229 -102.849209 269 11032ft 167kts
08-Dec-17 18:13 35.214795 -102.905270 268 11045ft 163kts
08-Dec-17 18:14 35.212359 -102.960496 268 11046ft 162kts
08-Dec-17 18:15 35.210331 -103.005751 269 11046ft 162kts
08-Dec-17 18:16 35.207919 -103.059520 269 11047ft 166kts
08-Dec-17 18:17 35.205357 -103.116209 269 11046ft 167kts
08-Dec-17 18:18 35.202743 -103.173270 269 11046ft 167kts
08-Dec-17 18:19 35.200109 -103.229928 269 11046ft 167kts
08-Dec-17 18:20 35.197438 -103.286882 269 11046ft 167kts
08-Dec-17 18:21 35.194744 -103.343838 269 11046ft 167kts
08-Dec-17 18:22 35.192023 -103.400801 269 11046ft 167kts
08-Dec-17 18:23 35.189287 -103.457539 269 11046ft 167kts
08-Dec-17 18:24 35.187093 -103.502679 269 11046ft 167kts
08-Dec-17 18:25 35.186003 -103.524916 269 11046ft 167kts
08-Dec-17 18:26 35.183201 -103.581922 269 11046ft 167kts
08-Dec-17 18:27 35.180662 -103.638841 270 11046ft 167kts
08-Dec-17 18:28 35.178196 -103.695970 269 10955ft 168kts
08-Dec-17 18:29 35.175642 -103.752955 269 10954ft 167kts
08-Dec-17 18:30 35.173114 -103.809764 269 10954ft 167kts
08-Dec-17 18:31 35.170550 -103.866830 269 10954ft 167kts
08-Dec-17 18:32 35.167972 -103.923594 269 10954ft 167kts
08-Dec-17 18:33 35.165365 -103.980438 269 10955ft 167kts
08-Dec-17 18:34 35.162727 -104.037365 269 10955ft 167kts
08-Dec-17 18:35 35.160062 -104.094297 269 10955ft 167kts
08-Dec-17 18:36 35.157370 -104.151229 269 10955ft 167kts
08-Dec-17 18:37 35.154659 -104.208000 269 10955ft 167kts
08-Dec-17 18:38 35.151919 -104.264819 269 10955ft 167kts
08-Dec-17 18:39 35.149142 -104.321858 269 10955ft 167kts
08-Dec-17 18:40 35.146348 -104.378679 269 10955ft 167kts
08-Dec-17 18:41 35.143618 -104.434956 267 11031ft 165kts
08-Dec-17 18:42 35.140727 -104.492023 266 11036ft 169kts
08-Dec-17 18:43 35.137802 -104.549293 266 11035ft 169kts
08-Dec-17 18:44 35.134859 -104.606838 266 11035ft 169kts
08-Dec-17 18:45 35.131935 -104.663588 265 11035ft 169kts
08-Dec-17 18:46 35.128965 -104.720667 265 11034ft 169kts
08-Dec-17 18:47 35.125944 -104.778228 265 11035ft 169kts
08-Dec-17 18:48 35.122905 -104.835642 265 11035ft 169kts
08-Dec-17 18:49 35.119833 -104.893141 265 11035ft 169kts
08-Dec-17 18:50 35.116743 -104.950479 265 11035ft 169kts
08-Dec-17 18:51 35.113619 -105.007930 265 11035ft 169kts
08-Dec-17 18:52 35.110848 -105.065490 266 11035ft 169kts
08-Dec-17 18:53 35.108493 -105.122991 266 11035ft 169kts
08-Dec-17 18:54 35.106120 -105.180504 266 11035ft 169kts
08-Dec-17 18:55 35.103614 -105.238163 269 11064ft 171kts
08-Dec-17 18:56 35.101312 -105.295204 269 11063ft 163kts
08-Dec-17 18:57 35.099054 -105.349138 267 11061ft 157kts
08-Dec-17 18:58 35.096750 -105.402164 268 10998ft 159kts
08-Dec-17 18:59 35.094406 -105.455839 267 10960ft 156kts
08-Dec-17 19:00 35.092083 -105.508701 267 10960ft 156kts
08-Dec-17 19:01 35.089737 -105.561555 267 10960ft 155kts
08-Dec-17 19:02 35.087373 -105.614303 267 10960ft 155kts
08-Dec-17 19:03 35.084994 -105.666830 267 10962ft 155kts
08-Dec-17 19:04 35.082574 -105.719778 267 10962ft 156kts
08-Dec-17 19:05 35.080134 -105.772654 267 10962ft 156kts
08-Dec-17 19:06 35.077676 -105.825438 267 10962ft 156kts
08-Dec-17 19:07 35.075190 -105.878315 267 10962ft 156kts
08-Dec-17 19:08 35.060827 -105.928110 249 10962ft 157kts
08-Dec-17 19:10 35.044151 -105.977128 249 10962ft 157kts
08-Dec-17 19:11 35.027437 -106.026864 249 10960ft 160kts
08-Dec-17 19:12 35.010548 -106.078276 249 10962ft 166kts
08-Dec-17 19:13 34.993470 -106.131169 249 10961ft 168kts
08-Dec-17 19:14 34.976372 -106.184172 249 10961ft 168kts
08-Dec-17 19:15 34.959351 -106.236931 249 10960ft 168kts
08-Dec-17 19:16 34.941862 -106.290316 249 10962ft 170kts
08-Dec-17 19:17 34.924388 -106.343709 249 10962ft 170kts
08-Dec-17 19:18 34.907100 -106.403587 256 9999ft 184kts
08-Dec-17 19:19 34.890650 -106.457259 249 10008ft 166kts
08-Dec-17 19:20 34.892510 -106.509120 294 10012ft 164kts
08-Dec-17 19:21 34.914376 -106.560048 300 9500ft 178kts
08-Dec-17 19:22 34.938091 -106.602814 309 8072ft 119kts
08-Dec-17 19:23 34.960329 -106.629023 322 6932ft 108kts
08-Dec-17 19:24 34.986333 -106.648503 337 6232ft 108kts
08-Dec-17 19:25 35.010967 -106.644639 51 5687ft 90kts
08-Dec-17 19:26 35.026438 -106.625549 43 5312ft 51kts
08-Dec-17 19:27 35.030753 -106.622451 45 5311ft 6kts
08-Dec-17 19:28 35.033679 -106.618942 44 5311ft 14kts
08-Dec-17 19:29 35.035519 -106.618397 44 5311ft 3kts

Navigation Log

Ident Type
Flight plan parsing failed, navigation log unavailable